Time;durP1;ratioP1;P1;durP2;ratioP2;P2;SDS_P1;SDS_P2;PMS_P1;PMS_P2;Temp;Humidity;BMP_temperature;BMP_pressure;BME280_temperature;BME280_humidity;BME280_pressure;Samples;Min_cycle;Max_cycle;Signal;HPM_P1;HPM_P2
2021/01/17 00:03:42;;;;;;;16.73;12.18;;;;;;;;;;10098178;28;20524;-60
2021/01/17 00:08:40;;;;;;;28.67;17.13;;;;;;;;;;10098454;28;20066;-57
2021/01/17 00:13:38;;;;;;;23.25;13.18;;;;;;;;;;10083341;28;20484;-59
2021/01/17 00:18:36;;;;;;;30.58;17.13;;;;;;;;;;10087209;28;20079;-61
2021/01/17 00:23:39;;;;;;;33.10;18.27;;;;;;;;;;10087551;28;20074;-59
2021/01/17 00:28:36;;;;;;;27.25;15.25;;;;;;;;;;10081017;29;20074;-58
2021/01/17 00:33:35;;;;;;;22.33;15.55;;;;;;;;;;10080755;29;20089;-62
2021/01/17 00:38:32;;;;;;;21.58;13.68;;;;;;;;;;10080923;29;20083;-61
2021/01/17 00:43:29;;;;;;;20.58;14.70;;;;;;;;;;10080989;28;20035;-61
2021/01/17 00:48:26;;;;;;;18.27;13.73;;;;;;;;;;10079315;28;20076;-62
2021/01/17 00:53:25;;;;;;;20.27;12.30;;;;;;;;;;10063066;29;20051;-60
2021/01/17 00:58:23;;;;;;;19.88;13.30;;;;;;;;;;10080815;29;20075;-61
2021/01/17 01:03:25;;;;;;;22.48;15.23;;;;;;;;;;10062591;29;20075;-61
2021/01/17 01:08:22;;;;;;;24.67;14.95;;;;;;;;;;10079415;29;20110;-61
2021/01/17 01:13:20;;;;;;;30.52;18.83;;;;;;;;;;10080377;29;20054;-61
2021/01/17 01:18:18;;;;;;;32.90;21.48;;;;;;;;;;10078866;29;20083;-61
2021/01/17 01:23:15;;;;;;;27.25;17.25;;;;;;;;;;10079397;28;20047;-61
2021/01/17 01:28:12;;;;;;;26.92;20.02;;;;;;;;;;10079033;29;20486;-61
2021/01/17 01:33:10;;;;;;;30.55;19.92;;;;;;;;;;10076864;29;20535;-61
2021/01/17 01:38:08;;;;;;;41.08;27.92;;;;;;;;;;10078690;29;20075;-61
2021/01/17 01:43:06;;;;;;;29.27;19.75;;;;;;;;;;10078383;29;20511;-61
2021/01/17 01:48:05;;;;;;;27.00;18.95;;;;;;;;;;10077706;29;20413;-61
2021/01/17 01:53:04;;;;;;;43.70;25.13;;;;;;;;;;10078270;28;20066;-60
2021/01/17 01:58:04;;;;;;;29.42;18.25;;;;;;;;;;10077364;28;20079;-60
2021/01/17 02:03:01;;;;;;;30.17;20.08;;;;;;;;;;10077923;29;20051;-61
2021/01/17 02:08:26;;;;;;;31.75;20.58;;;;;;;;;;10077901;29;20089;-61
2021/01/17 02:13:29;;;;;;;32.92;18.95;;;;;;;;;;10077214;29;20501;-61
2021/01/17 02:18:27;;;;;;;28.60;19.65;;;;;;;;;;10076682;29;20090;-60
2021/01/17 02:23:27;;;;;;;28.20;18.25;;;;;;;;;;10077144;29;20047;-60
2021/01/17 02:28:26;;;;;;;29.63;18.45;;;;;;;;;;10077365;29;20487;-61
2021/01/17 02:33:25;;;;;;;38.30;22.15;;;;;;;;;;10076663;29;20078;-62
2021/01/17 02:38:36;;;;;;;31.75;18.55;;;;;;;;;;10075983;29;20081;-62
2021/01/17 02:43:35;;;;;;;29.88;18.60;;;;;;;;;;10076546;29;20047;-61
2021/01/17 02:48:32;;;;;;;25.90;16.80;;;;;;;;;;10075481;29;20054;-61
2021/01/17 02:53:32;;;;;;;34.45;19.48;;;;;;;;;;10074321;29;20082;-61
2021/01/17 02:58:30;;;;;;;40.25;21.85;;;;;;;;;;10074789;29;20117;-61
2021/01/17 03:03:31;;;;;;;42.03;23.58;;;;;;;;;;10075492;29;20070;-61
2021/01/17 03:08:28;;;;;;;34.60;20.15;;;;;;;;;;10076666;28;20043;-61
2021/01/17 03:13:26;;;;;;;28.65;17.80;;;;;;;;;;10083348;29;20086;-61
2021/01/17 03:18:23;;;;;;;26.67;16.58;;;;;;;;;;10083731;28;20078;-62
2021/01/17 03:23:21;;;;;;;26.48;17.83;;;;;;;;;;10083148;29;20480;-61
2021/01/17 03:28:18;;;;;;;34.42;20.10;;;;;;;;;;10083939;29;20048;-61
2021/01/17 03:33:16;;;;;;;39.30;25.70;;;;;;;;;;10083176;29;20075;-61
2021/01/17 03:38:13;;;;;;;33.95;20.75;;;;;;;;;;10083262;29;20075;-60
2021/01/17 03:43:11;;;;;;;35.63;20.65;;;;;;;;;;10082081;29;20086;-60
2021/01/17 03:48:09;;;;;;;32.80;20.63;;;;;;;;;;10082239;29;20047;-61
2021/01/17 03:53:06;;;;;;;32.50;18.48;;;;;;;;;;10082665;29;20090;-60
2021/01/17 03:58:03;;;;;;;27.70;18.42;;;;;;;;;;10081427;29;20083;-60
2021/01/17 04:03:01;;;;;;;28.42;17.95;;;;;;;;;;10082222;29;20075;-60
2021/01/17 04:07:59;;;;;;;30.85;18.63;;;;;;;;;;10082563;29;20094;-61
2021/01/17 04:12:58;;;;;;;26.33;17.48;;;;;;;;;;10081102;28;20090;-61
2021/01/17 04:17:56;;;;;;;26.88;16.35;;;;;;;;;;10081822;28;20079;-62
2021/01/17 04:23:01;;;;;;;30.23;17.60;;;;;;;;;;10080526;28;20086;-61
2021/01/17 04:27:59;;;;;;;31.40;19.50;;;;;;;;;;10081614;29;20074;-61
2021/01/17 04:32:56;;;;;;;30.10;18.73;;;;;;;;;;10081328;29;20075;-62
2021/01/17 04:37:56;;;;;;;32.78;21.45;;;;;;;;;;10081026;28;20098;-61
2021/01/17 04:43:01;;;;;;;32.20;21.40;;;;;;;;;;10080533;29;20079;-60
2021/01/17 04:47:58;;;;;;;35.08;19.58;;;;;;;;;;10080616;29;20402;-61
2021/01/17 04:52:59;;;;;;;47.65;23.30;;;;;;;;;;10080572;28;20043;-61
2021/01/17 04:58:04;;;;;;;43.83;25.75;;;;;;;;;;10080249;29;20074;-61
2021/01/17 05:03:09;;;;;;;26.88;17.13;;;;;;;;;;10079256;29;20078;-62
2021/01/17 05:08:29;;;;;;;34.60;21.65;;;;;;;;;;10062552;29;20062;-61
2021/01/17 05:13:32;;;;;;;32.80;22.75;;;;;;;;;;10079265;29;20346;-61
2021/01/17 05:18:30;;;;;;;27.55;18.48;;;;;;;;;;10078815;29;20102;-62
2021/01/17 05:23:33;;;;;;;29.88;19.25;;;;;;;;;;10079007;29;20058;-61
2021/01/17 05:28:31;;;;;;;36.28;22.05;;;;;;;;;;10079817;29;20081;-61
2021/01/17 05:33:30;;;;;;;86.10;47.70;;;;;;;;;;10078551;28;20063;-61
2021/01/17 05:38:27;;;;;;;50.83;28.92;;;;;;;;;;10077899;29;20456;-61
2021/01/17 05:43:25;;;;;;;48.60;32.63;;;;;;;;;;10078570;29;20528;-61
2021/01/17 05:48:23;;;;;;;39.72;23.58;;;;;;;;;;10077742;29;20054;-61
2021/01/17 05:53:25;;;;;;;44.05;21.42;;;;;;;;;;10077543;29;20101;-60
2021/01/17 05:58:23;;;;;;;39.35;23.40;;;;;;;;;;10077466;29;20086;-62
2021/01/17 06:03:24;;;;;;;36.35;23.38;;;;;;;;;;10077601;29;20062;-60
2021/01/17 06:08:21;;;;;;;36.05;22.02;;;;;;;;;;10076925;29;20062;-60
2021/01/17 06:13:25;;;;;;;29.63;19.35;;;;;;;;;;10076566;29;20516;-61
2021/01/17 06:18:24;;;;;;;35.65;19.88;;;;;;;;;;10076997;29;20101;-61
2021/01/17 06:23:22;;;;;;;31.55;19.00;;;;;;;;;;10076741;29;20073;-60
2021/01/17 06:28:21;;;;;;;26.75;16.95;;;;;;;;;;10077235;29;20047;-60
2021/01/17 06:33:21;;;;;;;24.00;17.05;;;;;;;;;;10077221;28;20088;-60
2021/01/17 06:38:36;;;;;;;27.90;17.95;;;;;;;;;;10076446;29;20078;-61
2021/01/17 06:43:38;;;;;;;35.42;22.75;;;;;;;;;;10076287;29;20051;-59
2021/01/17 06:48:36;;;;;;;30.35;19.52;;;;;;;;;;10075978;29;20474;-60
2021/01/17 06:53:33;;;;;;;32.15;21.13;;;;;;;;;;10076466;29;20043;-61
2021/01/17 06:58:31;;;;;;;30.70;19.85;;;;;;;;;;10075137;29;20078;-60
2021/01/17 07:03:34;;;;;;;29.23;18.98;;;;;;;;;;10076408;29;20493;-60
2021/01/17 07:08:50;;;;;;;28.45;21.17;;;;;;;;;;10075937;29;20082;-62
2021/01/17 07:13:49;;;;;;;37.50;25.35;;;;;;;;;;10075664;29;20075;-61
2021/01/17 07:18:52;;;;;;;81.55;45.45;;;;;;;;;;10073582;28;20071;-62
2021/01/17 07:23:52;;;;;;;49.55;32.75;;;;;;;;;;10070404;29;20532;-62
2021/01/17 07:28:51;;;;;;;35.67;25.75;;;;;;;;;;10072033;29;20070;-61
2021/01/17 07:33:51;;;;;;;38.78;27.92;;;;;;;;;;10072103;29;20509;-61
2021/01/17 07:38:54;;;;;;;33.90;25.90;;;;;;;;;;10073153;29;20077;-61
2021/01/17 07:43:58;;;;;;;28.15;20.85;;;;;;;;;;10074481;29;20082;-61
2021/01/17 07:48:57;;;;;;;46.25;32.92;;;;;;;;;;10075048;29;20468;-60
2021/01/17 07:53:57;;;;;;;75.63;41.70;;;;;;;;;;10075698;28;20047;-62
2021/01/17 07:58:58;;;;;;;68.93;45.40;;;;;;;;;;10064380;29;20086;-62
2021/01/17 08:03:55;;;;;;;47.30;31.50;;;;;;;;;;10082172;29;20051;-61
2021/01/17 08:08:52;;;;;;;48.65;31.33;;;;;;;;;;10082166;29;20102;-62
2021/01/17 08:13:50;;;;;;;37.60;27.63;;;;;;;;;;10081376;29;20082;-62
2021/01/17 08:18:49;;;;;;;35.83;25.95;;;;;;;;;;10080693;29;20075;-61
2021/01/17 08:24:07;;;;;;;26.08;19.50;;;;;;;;;;10080948;29;20058;-62
2021/01/17 08:29:04;;;;;;;85.75;45.85;;;;;;;;;;10075385;29;20066;-62
2021/01/17 08:34:13;;;;;;;40.50;27.45;;;;;;;;;;10080157;29;20044;-62
2021/01/17 08:39:11;;;;;;;230.15;124.05;;;;;;;;;;10063333;29;20496;-62
2021/01/17 08:44:15;;;;;;;192.13;118.32;;;;;;;;;;10080878;29;20043;-62
2021/01/17 08:49:15;;;;;;;69.68;57.63;;;;;;;;;;10080306;29;20464;-62
2021/01/17 08:54:25;;;;;;;79.88;43.75;;;;;;;;;;10080277;29;20051;-60
2021/01/17 08:59:42;;;;;;;72.47;41.03;;;;;;;;;;10080638;29;20091;-60
2021/01/17 09:04:47;;;;;;;170.95;82.82;;;;;;;;;;10080072;29;20059;-62
2021/01/17 09:10:02;;;;;;;507.30;209.13;;;;;;;;;;10078908;28;20437;-62
2021/01/17 09:15:00;;;;;;;152.65;69.45;;;;;;;;;;10079639;29;20474;-61
2021/01/17 09:19:58;;;;;;;370.00;159.50;;;;;;;;;;10080021;29;20085;-62
2021/01/17 09:24:56;;;;;;;215.98;97.93;;;;;;;;;;10079818;29;20047;-61
2021/01/17 09:29:53;;;;;;;639.78;278.85;;;;;;;;;;10079536;29;20039;-60
2021/01/17 09:34:51;;;;;;;503.40;223.82;;;;;;;;;;10079324;29;20081;-60
2021/01/17 09:39:55;;;;;;;122.05;58.72;;;;;;;;;;10079254;29;20090;-60
2021/01/17 09:44:53;;;;;;;99.28;48.05;;;;;;;;;;10078943;29;20507;-61
2021/01/17 09:49:51;;;;;;;92.93;46.97;;;;;;;;;;10078843;29;20074;-60
2021/01/17 09:54:49;;;;;;;88.22;47.85;;;;;;;;;;10077492;29;20097;-62
2021/01/17 09:59:52;;;;;;;41.83;28.70;;;;;;;;;;10078524;29;20090;-62
2021/01/17 10:04:50;;;;;;;51.22;30.27;;;;;;;;;;10076309;29;20082;-61
2021/01/17 10:09:48;;;;;;;160.80;77.40;;;;;;;;;;10078126;29;20505;-62
2021/01/17 10:14:45;;;;;;;60.80;35.67;;;;;;;;;;10078391;29;20074;-62
2021/01/17 10:19:45;;;;;;;86.75;47.90;;;;;;;;;;10076670;28;20090;-62
2021/01/17 10:24:43;;;;;;;33.10;23.05;;;;;;;;;;10077661;29;20830;-62
2021/01/17 10:29:41;;;;;;;104.75;55.70;;;;;;;;;;10076876;29;20079;-61
2021/01/17 10:34:40;;;;;;;82.30;40.35;;;;;;;;;;10077393;29;20505;-60
2021/01/17 10:39:41;;;;;;;54.92;32.53;;;;;;;;;;10077474;29;20075;-62
2021/01/17 10:44:42;;;;;;;78.15;41.83;;;;;;;;;;10076401;29;20082;-60
2021/01/17 10:49:41;;;;;;;66.57;34.05;;;;;;;;;;10075883;29;20079;-61
2021/01/17 10:54:42;;;;;;;48.80;28.35;;;;;;;;;;10102198;28;20070;-60
2021/01/17 10:59:39;;;;;;;80.32;41.72;;;;;;;;;;10109281;28;20070;-60
2021/01/17 11:04:40;;;;;;;102.20;57.88;;;;;;;;;;10113950;28;20464;-60
2021/01/17 11:09:38;;;;;;;63.83;40.75;;;;;;;;;;10105623;28;20074;-60
2021/01/17 11:14:36;;;;;;;49.20;27.85;;;;;;;;;;10109110;28;20073;-60
2021/01/17 11:19:35;;;;;;;65.30;38.80;;;;;;;;;;10108859;28;20077;-60
2021/01/17 11:24:37;;;;;;;83.90;45.92;;;;;;;;;;10101544;28;20473;-62
2021/01/17 11:29:34;;;;;;;87.55;47.78;;;;;;;;;;10100253;28;20074;-61
2021/01/17 11:34:37;;;;;;;90.18;45.13;;;;;;;;;;10114577;28;20066;-60
2021/01/17 11:39:44;;;;;;;115.60;53.60;;;;;;;;;;10087868;28;20074;-61
2021/01/17 11:44:41;;;;;;;43.28;27.05;;;;;;;;;;10116218;28;20077;-61
2021/01/17 11:49:40;;;;;;;89.20;45.85;;;;;;;;;;10078985;28;20138;-63
2021/01/17 11:54:37;;;;;;;68.57;38.67;;;;;;;;;;10116297;28;20105;-63
2021/01/17 11:59:35;;;;;;;86.75;45.28;;;;;;;;;;10118675;28;20078;-62
2021/01/17 12:04:43;;;;;;;55.35;34.15;;;;;;;;;;10114403;28;20077;-60
2021/01/17 12:09:41;;;;;;;43.75;27.50;;;;;;;;;;10114669;28;20082;-61
2021/01/17 12:14:38;;;;;;;50.63;31.52;;;;;;;;;;10119128;28;20047;-62
2021/01/17 12:19:36;;;;;;;41.97;28.80;;;;;;;;;;10081628;28;20086;-61
2021/01/17 12:24:35;;;;;;;37.65;24.58;;;;;;;;;;10081028;28;20079;-61
2021/01/17 12:29:34;;;;;;;58.83;34.17;;;;;;;;;;10081243;28;20047;-63
2021/01/17 12:34:31;;;;;;;59.25;32.70;;;;;;;;;;10081250;28;20039;-63
2021/01/17 12:39:28;;;;;;;48.65;28.85;;;;;;;;;;10080767;28;20086;-61
2021/01/17 12:44:26;;;;;;;40.22;25.95;;;;;;;;;;10078231;28;20050;-62
2021/01/17 12:49:24;;;;;;;62.00;39.38;;;;;;;;;;10080729;28;20048;-63
2021/01/17 12:54:21;;;;;;;58.80;33.85;;;;;;;;;;10080190;28;20511;-60
2021/01/17 12:59:19;;;;;;;43.10;29.67;;;;;;;;;;10079959;28;20470;-63
2021/01/17 13:04:16;;;;;;;45.53;27.17;;;;;;;;;;10080030;28;20039;-62
2021/01/17 13:09:14;;;;;;;91.32;52.08;;;;;;;;;;10078771;28;20530;-61
2021/01/17 13:14:11;;;;;;;34.08;23.88;;;;;;;;;;10079744;28;20082;-63
2021/01/17 13:19:09;;;;;;;55.15;33.63;;;;;;;;;;10079413;28;20067;-62
2021/01/17 13:24:07;;;;;;;59.30;38.10;;;;;;;;;;10078562;28;20051;-62
2021/01/17 13:29:05;;;;;;;76.82;42.38;;;;;;;;;;10079114;28;20082;-62
2021/01/17 13:34:02;;;;;;;45.13;30.05;;;;;;;;;;10078468;28;20047;-62
2021/01/17 13:39:00;;;;;;;47.83;27.98;;;;;;;;;;10078621;28;20054;-62
2021/01/17 13:43:59;;;;;;;54.80;30.85;;;;;;;;;;10078483;28;20074;-62
2021/01/17 13:48:57;;;;;;;406.77;159.38;;;;;;;;;;10078340;28;20085;-61
2021/01/17 13:53:54;;;;;;;72.85;42.13;;;;;;;;;;10074222;28;20090;-62
2021/01/17 13:58:51;;;;;;;47.45;28.10;;;;;;;;;;10073949;28;20086;-61
2021/01/17 14:03:49;;;;;;;55.95;32.58;;;;;;;;;;10073713;28;20096;-61
2021/01/17 14:08:47;;;;;;;48.58;29.45;;;;;;;;;;10076127;28;20163;-61
2021/01/17 14:13:44;;;;;;;47.92;30.25;;;;;;;;;;10077575;28;20051;-62
2021/01/17 14:18:44;;;;;;;66.75;40.97;;;;;;;;;;10076167;28;20424;-62
2021/01/17 14:23:41;;;;;;;60.40;38.92;;;;;;;;;;10076789;28;20075;-61
2021/01/17 14:28:40;;;;;;;123.72;70.45;;;;;;;;;;10076644;28;20512;-61
2021/01/17 14:33:37;;;;;;;62.08;45.38;;;;;;;;;;10072737;28;20081;-61
2021/01/17 14:38:35;;;;;;;49.88;33.00;;;;;;;;;;10072117;28;20090;-61
2021/01/17 14:43:32;;;;;;;103.22;60.67;;;;;;;;;;10074131;28;20086;-61
2021/01/17 14:48:31;;;;;;;78.28;49.83;;;;;;;;;;10076364;28;20047;-61
2021/01/17 14:53:28;;;;;;;98.07;56.90;;;;;;;;;;10076400;28;20063;-62
2021/01/17 14:58:25;;;;;;;68.03;40.38;;;;;;;;;;10076212;28;20043;-61
2021/01/17 15:03:22;;;;;;;83.10;47.42;;;;;;;;;;10075993;28;20082;-62
2021/01/17 15:08:21;;;;;;;151.57;94.82;;;;;;;;;;10082163;28;20480;-62
2021/01/17 15:13:18;;;;;;;71.97;44.88;;;;;;;;;;10083312;28;20480;-62
2021/01/17 15:18:30;;;;;;;94.00;59.45;;;;;;;;;;10083909;28;20075;-61
2021/01/17 15:23:29;;;;;;;106.25;62.38;;;;;;;;;;10083665;28;20528;-62
2021/01/17 15:28:26;;;;;;;106.15;60.83;;;;;;;;;;10083260;28;20524;-61
2021/01/17 15:33:26;;;;;;;114.78;70.30;;;;;;;;;;10083118;28;20062;-62
2021/01/17 15:38:24;;;;;;;93.90;55.05;;;;;;;;;;10083457;28;20436;-62
2021/01/17 15:43:22;;;;;;;107.50;60.70;;;;;;;;;;10082637;28;20075;-62
2021/01/17 15:48:19;;;;;;;123.43;67.15;;;;;;;;;;10082511;28;20093;-61
2021/01/17 15:53:16;;;;;;;116.47;69.22;;;;;;;;;;10082317;28;20047;-60
2021/01/17 15:58:14;;;;;;;122.75;70.68;;;;;;;;;;10080142;28;20089;-60
2021/01/17 16:03:12;;;;;;;134.75;87.63;;;;;;;;;;10078531;28;20098;-62
2021/01/17 16:08:09;;;;;;;127.00;80.15;;;;;;;;;;10078549;28;20079;-59
2021/01/17 16:13:07;;;;;;;129.40;76.90;;;;;;;;;;10082004;28;20059;-62
2021/01/17 16:18:04;;;;;;;126.65;76.03;;;;;;;;;;10081437;28;20086;-61
2021/01/17 16:23:03;;;;;;;158.00;97.32;;;;;;;;;;10082150;29;20516;-61
2021/01/17 16:28:00;;;;;;;114.78;72.95;;;;;;;;;;10081790;29;20151;-63
2021/01/17 16:33:01;;;;;;;144.70;82.07;;;;;;;;;;10081420;28;20066;-61
2021/01/17 16:38:00;;;;;;;152.52;89.07;;;;;;;;;;10081541;28;20500;-60
2021/01/17 16:42:58;;;;;;;153.82;91.20;;;;;;;;;;10097315;28;20492;-62
2021/01/17 16:47:56;;;;;;;189.50;113.40;;;;;;;;;;10118077;28;20057;-61
2021/01/17 16:52:53;;;;;;;254.77;122.25;;;;;;;;;;10100607;28;20501;-60
2021/01/17 16:57:51;;;;;;;161.38;70.15;;;;;;;;;;10116697;28;20078;-62
2021/01/17 17:02:50;;;;;;;90.70;55.65;;;;;;;;;;10118932;28;20529;-62
2021/01/17 17:07:48;;;;;;;70.68;43.70;;;;;;;;;;10117955;28;20467;-61
2021/01/17 17:12:46;;;;;;;97.78;61.80;;;;;;;;;;10117753;28;20059;-61
2021/01/17 17:17:46;;;;;;;81.38;46.33;;;;;;;;;;10119156;28;20074;-61
2021/01/17 17:22:44;;;;;;;77.18;46.97;;;;;;;;;;10118992;28;20093;-61
2021/01/17 17:27:41;;;;;;;86.03;51.40;;;;;;;;;;10116869;28;20075;-61
2021/01/17 17:32:43;;;;;;;184.23;94.60;;;;;;;;;;10113309;28;20062;-59
2021/01/17 17:37:40;;;;;;;48.05;31.92;;;;;;;;;;10117512;28;20485;-60
2021/01/17 17:42:38;;;;;;;46.70;30.35;;;;;;;;;;10100206;28;20082;-60
2021/01/17 17:47:37;;;;;;;54.30;34.63;;;;;;;;;;10117369;28;20054;-61
2021/01/17 17:52:34;;;;;;;53.75;35.55;;;;;;;;;;10117183;28;20503;-61
2021/01/17 17:57:32;;;;;;;55.42;34.78;;;;;;;;;;10116920;28;20081;-61
2021/01/17 18:02:30;;;;;;;46.63;32.25;;;;;;;;;;10116745;28;20101;-61
2021/01/17 18:07:28;;;;;;;43.40;27.67;;;;;;;;;;10116766;28;20158;-61
2021/01/17 18:12:25;;;;;;;54.47;32.65;;;;;;;;;;10116740;28;20517;-61
2021/01/17 18:17:23;;;;;;;50.42;32.80;;;;;;;;;;10116162;28;20051;-61
2021/01/17 18:22:21;;;;;;;46.45;27.77;;;;;;;;;;10116187;28;20089;-62
2021/01/17 18:27:18;;;;;;;40.97;27.15;;;;;;;;;;10115075;28;20211;-60
2021/01/17 18:32:17;;;;;;;50.85;32.50;;;;;;;;;;10116131;28;20432;-60
2021/01/17 18:37:15;;;;;;;47.15;31.45;;;;;;;;;;10116053;28;20090;-59
2021/01/17 18:42:13;;;;;;;41.45;25.58;;;;;;;;;;10114939;28;20082;-59
2021/01/17 18:47:14;;;;;;;66.22;37.50;;;;;;;;;;10115413;28;20093;-60
2021/01/17 18:52:11;;;;;;;49.83;30.17;;;;;;;;;;10113825;28;20109;-61
2021/01/17 18:57:09;;;;;;;78.88;45.60;;;;;;;;;;10109314;28;20556;-59
2021/01/17 19:02:08;;;;;;;39.17;25.77;;;;;;;;;;10108258;28;20087;-61
2021/01/17 19:07:05;;;;;;;47.08;31.02;;;;;;;;;;10108053;28;20296;-58
2021/01/17 19:12:03;;;;;;;59.00;33.85;;;;;;;;;;10112254;28;20543;-60
2021/01/17 19:17:01;;;;;;;52.65;30.67;;;;;;;;;;10114403;28;20078;-61
2021/01/17 19:21:59;;;;;;;48.22;30.25;;;;;;;;;;10113031;28;20544;-59
2021/01/17 19:26:58;;;;;;;53.78;32.28;;;;;;;;;;10109294;28;20070;-56
2021/01/17 19:31:55;;;;;;;59.78;30.17;;;;;;;;;;10074761;29;20509;-61
2021/01/17 19:36:53;;;;;;;67.30;38.35;;;;;;;;;;10077057;28;20048;-61
2021/01/17 19:41:51;;;;;;;52.80;30.33;;;;;;;;;;10114174;28;20512;-61
2021/01/17 19:46:49;;;;;;;43.40;24.48;;;;;;;;;;10110281;28;20067;-57
2021/01/17 19:51:47;;;;;;;46.50;25.40;;;;;;;;;;10113945;28;20067;-60
2021/01/17 19:56:45;;;;;;;44.13;24.65;;;;;;;;;;10110333;28;20075;-61
2021/01/17 20:01:43;;;;;;;38.95;23.75;;;;;;;;;;10109970;28;20077;-61
2021/01/17 20:06:44;;;;;;;43.53;24.90;;;;;;;;;;10109652;28;20521;-60
2021/01/17 20:11:44;;;;;;;37.65;22.55;;;;;;;;;;10108405;28;20088;-61
2021/01/17 20:16:43;;;;;;;35.47;22.08;;;;;;;;;;10108067;28;20074;-55
2021/01/17 20:21:41;;;;;;;89.68;51.20;;;;;;;;;;10110769;28;20089;-60
2021/01/17 20:26:39;;;;;;;159.30;81.50;;;;;;;;;;10113039;28;20066;-60
2021/01/17 20:31:38;;;;;;;265.35;135.48;;;;;;;;;;10112385;28;20496;-60
2021/01/17 20:36:37;;;;;;;499.95;275.77;;;;;;;;;;10107420;28;20097;-60
2021/01/17 20:41:35;;;;;;;600.35;313.90;;;;;;;;;;10108505;28;20082;-60
2021/01/17 20:46:53;;;;;;;464.05;215.85;;;;;;;;;;10109179;28;20063;-58
2021/01/17 20:51:55;;;;;;;416.77;189.07;;;;;;;;;;10109526;28;20463;-60
2021/01/17 20:56:52;;;;;;;439.25;193.30;;;;;;;;;;10104026;28;20114;-61
2021/01/17 21:01:50;;;;;;;550.42;247.20;;;;;;;;;;10111181;28;20133;-61
2021/01/17 21:06:50;;;;;;;443.58;162.77;;;;;;;;;;10113386;28;20066;-61
2021/01/17 21:11:49;;;;;;;234.55;102.30;;;;;;;;;;10111699;28;20070;-60
2021/01/17 21:16:47;;;;;;;166.00;70.32;;;;;;;;;;10111683;28;20074;-60
2021/01/17 21:21:57;;;;;;;187.38;73.82;;;;;;;;;;10117618;28;20074;-61
2021/01/17 21:27:00;;;;;;;147.80;69.55;;;;;;;;;;10118157;28;20081;-61
2021/01/17 21:31:58;;;;;;;227.00;93.63;;;;;;;;;;10118222;28;20070;-61
2021/01/17 21:36:59;;;;;;;265.55;102.10;;;;;;;;;;10118351;28;20082;-61
2021/01/17 21:41:56;;;;;;;206.25;80.60;;;;;;;;;;10118554;28;20089;-61
2021/01/17 21:46:54;;;;;;;139.95;56.33;;;;;;;;;;10116976;28;20047;-62
2021/01/17 21:51:55;;;;;;;237.60;86.57;;;;;;;;;;10111413;28;20079;-61
2021/01/17 21:56:58;;;;;;;185.50;67.65;;;;;;;;;;10108614;28;20090;-61
2021/01/17 22:01:57;;;;;;;502.02;162.63;;;;;;;;;;10115057;28;20086;-61
2021/01/17 22:06:54;;;;;;;477.30;169.40;;;;;;;;;;10116885;28;20047;-61
2021/01/17 22:11:52;;;;;;;358.95;122.13;;;;;;;;;;10117837;28;20516;-59
2021/01/17 22:16:53;;;;;;;357.00;130.95;;;;;;;;;;10115858;28;20420;-61
2021/01/17 22:21:51;;;;;;;137.48;59.08;;;;;;;;;;10116533;28;20093;-61
2021/01/17 22:26:52;;;;;;;131.50;60.50;;;;;;;;;;10117079;28;20134;-60
2021/01/17 22:31:49;;;;;;;56.35;30.40;;;;;;;;;;10116672;28;20042;-62
2021/01/17 22:36:47;;;;;;;89.68;45.85;;;;;;;;;;10116474;28;20043;-60
2021/01/17 22:41:45;;;;;;;89.47;48.67;;;;;;;;;;10116285;28;20074;-61
2021/01/17 22:46:42;;;;;;;95.72;52.67;;;;;;;;;;10116517;28;20038;-60
2021/01/17 22:51:40;;;;;;;93.82;48.33;;;;;;;;;;10117844;28;20046;-60
2021/01/17 22:56:37;;;;;;;105.43;56.28;;;;;;;;;;10115658;28;20054;-61
2021/01/17 23:01:35;;;;;;;134.48;66.28;;;;;;;;;;10116062;28;20082;-61
2021/01/17 23:06:33;;;;;;;107.50;55.35;;;;;;;;;;10098768;28;20713;-61
2021/01/17 23:11:30;;;;;;;114.80;57.20;;;;;;;;;;10115498;28;20465;-60
2021/01/17 23:16:28;;;;;;;111.55;57.42;;;;;;;;;;10115981;28;20471;-60
2021/01/17 23:21:26;;;;;;;120.85;66.25;;;;;;;;;;10115602;28;20078;-61
2021/01/17 23:26:23;;;;;;;96.07;50.25;;;;;;;;;;10117343;28;20090;-61
2021/01/17 23:31:21;;;;;;;75.75;39.40;;;;;;;;;;10123272;28;20043;-61
2021/01/17 23:36:19;;;;;;;111.45;52.92;;;;;;;;;;10123431;28;20078;-60
2021/01/17 23:41:20;;;;;;;55.13;31.67;;;;;;;;;;10121850;28;20081;-60
2021/01/17 23:46:17;;;;;;;61.15;36.03;;;;;;;;;;10122557;28;20519;-60
2021/01/17 23:51:21;;;;;;;58.65;33.80;;;;;;;;;;10122420;28;20070;-60
2021/01/17 23:56:26;;;;;;;52.67;31.58;;;;;;;;;;10104108;28;20511;-61
